Time;durP1;ratioP1;P1;durP2;ratioP2;P2;SDS_P1;SDS_P2;PMS_P1;PMS_P2;Temp;Humidity;BMP_temperature;BMP_pressure;BME280_temperature;BME280_humidity;BME280_pressure;Samples;Min_cycle;Max_cycle;Signal;HPM_P1;HPM_P2
2023/05/28 00:01:06;;;;;;;7.50;3.22;;;14.70;99.90;;;;;;5051585;28;20033;-73
2023/05/28 00:03:32;;;;;;;7.88;3.25;;;14.70;99.90;;;;;;5050527;28;20053;-73
2023/05/28 00:05:58;;;;;;;9.68;3.20;;;14.70;99.90;;;;;;5051325;28;20040;-73
2023/05/28 00:08:25;;;;;;;7.97;3.80;;;14.80;99.90;;;;;;5051001;28;20078;-75
2023/05/28 00:10:51;;;;;;;15.52;3.35;;;14.70;99.90;;;;;;5050716;28;20434;-72
2023/05/28 00:13:17;;;;;;;12.55;4.53;;;14.60;99.90;;;;;;5050950;28;20156;-73
2023/05/28 00:15:44;;;;;;;15.48;3.28;;;14.60;99.90;;;;;;5050585;28;20139;-72
2023/05/28 00:18:14;;;;;;;12.57;3.53;;;14.70;99.90;;;;;;5050993;28;20032;-72
2023/05/28 00:20:40;;;;;;;13.20;3.50;;;14.70;99.90;;;;;;5050190;28;20338;-72
2023/05/28 00:23:06;;;;;;;9.63;4.30;;;14.60;99.90;;;;;;5051338;28;20197;-73
2023/05/28 00:25:32;;;;;;;11.23;3.67;;;14.70;99.90;;;;;;5050356;28;20106;-73
2023/05/28 00:27:57;;;;;;;9.85;4.20;;;14.60;99.90;;;;;;5049544;28;20043;-71
2023/05/28 00:30:24;;;;;;;9.07;4.18;;;14.40;99.90;;;;;;5049442;28;20021;-72
2023/05/28 00:32:51;;;;;;;13.70;4.75;;;14.40;99.90;;;;;;5050397;28;20025;-72
2023/05/28 00:35:16;;;;;;;10.02;3.97;;;14.40;99.90;;;;;;5050578;28;20535;-73
2023/05/28 00:37:42;;;;;;;12.27;4.22;;;14.40;99.90;;;;;;5050500;28;20025;-72
2023/05/28 00:40:08;;;;;;;16.90;4.30;;;14.40;99.90;;;;;;5050746;28;20048;-72
2023/05/28 00:42:34;;;;;;;11.70;4.55;;;14.50;99.90;;;;;;5050564;28;20025;-73
2023/05/28 00:45:00;;;;;;;12.93;4.07;;;14.40;99.90;;;;;;5050622;28;20036;-72
2023/05/28 00:47:26;;;;;;;14.05;4.10;;;14.40;99.90;;;;;;5050623;28;20029;-75
2023/05/28 00:49:55;;;;;;;10.63;3.78;;;14.30;99.90;;;;;;5050369;28;20037;-73
2023/05/28 00:52:22;;;;;;;12.32;3.90;;;14.30;99.90;;;;;;5050763;28;20082;-72
2023/05/28 00:54:49;;;;;;;13.55;3.90;;;14.20;99.90;;;;;;5049922;28;20028;-72
2023/05/28 00:57:15;;;;;;;15.43;4.20;;;14.20;99.90;;;;;;5050615;28;20025;-72
2023/05/28 00:59:42;;;;;;;11.25;4.07;;;14.30;99.90;;;;;;5049917;28;20033;-72
2023/05/28 01:02:08;;;;;;;11.90;4.07;;;14.30;99.90;;;;;;5050342;28;20335;-72
2023/05/28 01:04:35;;;;;;;14.27;4.15;;;14.20;99.90;;;;;;5049857;28;20029;-72
2023/05/28 01:07:01;;;;;;;9.13;3.75;;;14.20;99.90;;;;;;5050637;28;20063;-72
2023/05/28 01:09:27;;;;;;;13.60;4.28;;;14.20;99.90;;;;;;5050211;28;20449;-74
2023/05/28 01:11:54;;;;;;;13.18;4.32;;;14.20;99.90;;;;;;5050381;28;20032;-72
2023/05/28 01:14:21;;;;;;;11.63;4.22;;;14.30;99.90;;;;;;5050432;28;20037;-73
2023/05/28 01:16:48;;;;;;;8.50;3.72;;;14.30;99.90;;;;;;5050204;28;20437;-72
2023/05/28 01:19:18;;;;;;;17.35;4.05;;;14.30;99.90;;;;;;5050090;28;20040;-72
2023/05/28 01:21:45;;;;;;;12.32;4.03;;;14.10;99.90;;;;;;5049391;28;20053;-71
2023/05/28 01:24:13;;;;;;;14.52;4.40;;;14.10;99.90;;;;;;5050304;28;20106;-72
2023/05/28 01:26:42;;;;;;;11.00;3.33;;;14.10;99.90;;;;;;5049420;28;20049;-72
2023/05/28 01:29:16;;;;;;;15.25;3.95;;;14.10;99.90;;;;;;5050384;28;20423;-71
2023/05/28 01:31:42;;;;;;;14.13;3.85;;;14.10;99.90;;;;;;5049954;28;20112;-72
2023/05/28 01:34:08;;;;;;;14.18;3.60;;;14.00;99.90;;;;;;5049094;28;20116;-72
2023/05/28 01:36:38;;;;;;;12.60;3.83;;;14.00;99.90;;;;;;5049923;28;20462;-73
2023/05/28 01:39:05;;;;;;;13.00;3.38;;;14.00;99.90;;;;;;5050486;28;20025;-72
2023/05/28 01:41:31;;;;;;;10.93;3.45;;;14.10;99.90;;;;;;5051921;28;20028;-75
2023/05/28 01:43:59;;;;;;;14.02;3.20;;;14.00;99.90;;;;;;5054067;28;20025;-72
2023/05/28 01:46:25;;;;;;;9.52;3.45;;;14.00;99.90;;;;;;5053326;28;20075;-72
2023/05/28 01:48:51;;;;;;;12.23;3.40;;;14.10;99.90;;;;;;5053324;28;20104;-72
2023/05/28 01:51:21;;;;;;;10.90;3.35;;;14.00;99.90;;;;;;5052443;28;20107;-72
2023/05/28 01:53:47;;;;;;;12.30;2.90;;;14.00;99.90;;;;;;5053285;28;20112;-72
2023/05/28 01:56:13;;;;;;;12.13;4.20;;;14.00;99.90;;;;;;5053673;28;20444;-72
2023/05/28 01:58:38;;;;;;;11.05;3.40;;;14.00;99.90;;;;;;5053334;28;20047;-72
2023/05/28 02:01:36;;;;;;;11.55;3.10;;;14.00;99.90;;;;;;5053183;28;20439;-72
2023/05/28 02:04:02;;;;;;;15.95;3.47;;;13.90;99.90;;;;;;5053262;28;20032;-72
2023/05/28 02:06:31;;;;;;;10.80;3.78;;;14.00;99.90;;;;;;5053274;28;20021;-72
2023/05/28 02:08:57;;;;;;;17.10;4.13;;;14.00;99.90;;;;;;5053285;28;20028;-72
2023/05/28 02:11:23;;;;;;;13.38;3.80;;;14.10;99.90;;;;;;5053483;28;20047;-72
2023/05/28 02:13:49;;;;;;;12.32;3.60;;;14.00;99.90;;;;;;5053037;28;20434;-71
2023/05/28 02:16:17;;;;;;;14.50;3.15;;;14.10;99.90;;;;;;5053429;28;20032;-72
2023/05/28 02:18:46;;;;;;;12.82;3.00;;;14.00;99.90;;;;;;5052955;28;20063;-72
2023/05/28 02:21:12;;;;;;;12.10;3.70;;;13.90;99.90;;;;;;5053201;28;20065;-73
2023/05/28 02:23:43;;;;;;;15.77;3.60;;;13.90;99.90;;;;;;5052732;28;20036;-72
2023/05/28 02:26:09;;;;;;;11.45;3.35;;;13.90;99.90;;;;;;5053163;28;20052;-72
2023/05/28 02:28:35;;;;;;;10.00;3.17;;;14.00;99.90;;;;;;5052868;28;20060;-74
2023/05/28 02:31:01;;;;;;;12.60;3.58;;;14.00;99.90;;;;;;5052844;28;20060;-72
2023/05/28 02:33:26;;;;;;;14.80;3.95;;;13.90;99.90;;;;;;5053037;28;20025;-72
2023/05/28 02:35:53;;;;;;;13.65;3.25;;;13.90;99.90;;;;;;5052504;28;20124;-72
2023/05/28 02:38:18;;;;;;;9.90;3.20;;;13.90;99.90;;;;;;5053656;28;20036;-72
2023/05/28 02:40:44;;;;;;;10.80;3.13;;;13.80;99.90;;;;;;5052414;28;20037;-72
2023/05/28 02:43:10;;;;;;;14.95;4.30;;;13.80;99.90;;;;;;5052725;28;20029;-73
2023/05/28 02:45:35;;;;;;;14.20;3.92;;;13.80;99.90;;;;;;5052524;28;20421;-74
2023/05/28 02:48:01;;;;;;;13.98;4.00;;;13.70;99.90;;;;;;5053142;28;20025;-72
2023/05/28 02:50:27;;;;;;;18.25;4.05;;;13.80;99.90;;;;;;5052760;28;20378;-73
2023/05/28 02:52:52;;;;;;;15.65;4.32;;;13.70;99.90;;;;;;5051096;28;20021;-73
2023/05/28 02:55:18;;;;;;;16.88;4.32;;;13.70;99.90;;;;;;5052983;28;20033;-72
2023/05/28 02:57:44;;;;;;;20.67;4.13;;;13.70;99.90;;;;;;5052673;28;20131;-72
2023/05/28 03:00:10;;;;;;;18.63;4.75;;;13.70;99.90;;;;;;5052915;28;20055;-72
2023/05/28 03:02:36;;;;;;;16.80;4.45;;;13.60;99.90;;;;;;5052360;28;20111;-74
2023/05/28 03:05:02;;;;;;;19.63;4.22;;;13.40;99.90;;;;;;5052497;28;20466;-72
2023/05/28 03:07:31;;;;;;;14.13;3.80;;;13.40;99.90;;;;;;5052421;28;20021;-72
2023/05/28 03:09:57;;;;;;;14.68;4.38;;;13.30;99.90;;;;;;5051760;28;20838;-72
2023/05/28 03:12:23;;;;;;;15.82;4.43;;;13.40;99.90;;;;;;5052226;28;20033;-72
2023/05/28 03:14:49;;;;;;;20.50;4.50;;;13.30;99.90;;;;;;5051886;28;20055;-72
2023/05/28 03:17:15;;;;;;;18.73;4.38;;;13.30;99.90;;;;;;5052302;28;20033;-72
2023/05/28 03:19:41;;;;;;;18.58;3.88;;;13.30;99.90;;;;;;5051872;28;20021;-72
2023/05/28 03:22:06;;;;;;;19.42;4.60;;;13.30;99.90;;;;;;5052025;28;20362;-72
2023/05/28 03:24:34;;;;;;;18.73;4.45;;;13.30;99.90;;;;;;5052275;28;20040;-72
2023/05/28 03:27:01;;;;;;;21.55;4.18;;;13.30;99.90;;;;;;5051198;28;20063;-72
2023/05/28 03:29:27;;;;;;;18.00;4.65;;;13.30;99.90;;;;;;5050555;28;20032;-72
2023/05/28 03:31:52;;;;;;;15.20;3.72;;;13.10;99.90;;;;;;5051211;28;20021;-71
2023/05/28 03:34:18;;;;;;;18.83;4.00;;;13.20;99.90;;;;;;5051991;28;20060;-72
2023/05/28 03:36:44;;;;;;;20.20;3.75;;;13.20;99.90;;;;;;5051830;28;20032;-72
2023/05/28 03:39:10;;;;;;;21.20;4.63;;;13.10;99.90;;;;;;5052355;28;20039;-72
2023/05/28 03:41:37;;;;;;;15.05;4.55;;;13.00;99.90;;;;;;5051557;28;20402;-73
2023/05/28 03:44:04;;;;;;;19.05;3.95;;;13.10;99.90;;;;;;5051279;28;20033;-72
2023/05/28 03:46:30;;;;;;;16.33;3.88;;;13.10;99.90;;;;;;5050387;28;20036;-72
2023/05/28 03:48:56;;;;;;;19.42;4.43;;;13.10;99.90;;;;;;5051240;28;20116;-72
2023/05/28 03:51:23;;;;;;;13.48;3.30;;;13.10;99.90;;;;;;5051591;28;20086;-72
2023/05/28 03:53:50;;;;;;;17.33;4.07;;;13.10;99.90;;;;;;5051052;28;20053;-72
2023/05/28 03:56:16;;;;;;;17.10;4.35;;;13.10;99.90;;;;;;5051588;28;20029;-72
2023/05/28 03:58:42;;;;;;;15.48;3.75;;;13.10;99.90;;;;;;5050893;28;20032;-73
2023/05/28 04:01:07;;;;;;;17.23;4.07;;;13.10;99.90;;;;;;5051465;28;20029;-72
2023/05/28 04:03:33;;;;;;;18.45;3.55;;;13.20;99.90;;;;;;5050971;28;20392;-72
2023/05/28 04:06:00;;;;;;;14.38;3.50;;;13.20;99.90;;;;;;5050919;28;20568;-71
2023/05/28 04:08:26;;;;;;;12.25;3.45;;;13.10;99.90;;;;;;5051154;28;20108;-72
2023/05/28 04:10:52;;;;;;;12.15;3.78;;;13.00;99.90;;;;;;5050979;28;20108;-72
2023/05/28 04:13:18;;;;;;;10.75;2.75;;;13.00;99.90;;;;;;5051281;28;20369;-72
2023/05/28 04:15:43;;;;;;;14.95;3.50;;;13.00;99.90;;;;;;5050475;28;20118;-73
2023/05/28 04:18:09;;;;;;;17.65;3.47;;;12.80;99.90;;;;;;5050929;28;20079;-72
2023/05/28 04:20:38;;;;;;;13.55;3.30;;;12.80;99.90;;;;;;5051044;28;20047;-72
2023/05/28 04:23:04;;;;;;;10.50;3.40;;;12.80;99.90;;;;;;5050724;28;20104;-72
2023/05/28 04:25:29;;;;;;;14.38;3.75;;;12.80;99.90;;;;;;5050858;28;20205;-72
2023/05/28 04:27:56;;;;;;;12.25;3.40;;;12.70;99.90;;;;;;5050593;28;20079;-72
2023/05/28 04:30:23;;;;;;;15.23;3.42;;;12.80;99.90;;;;;;5050946;28;20029;-72
2023/05/28 04:32:52;;;;;;;13.63;3.60;;;12.80;99.90;;;;;;5050320;28;20021;-73
2023/05/28 04:35:19;;;;;;;16.42;3.33;;;12.80;99.90;;;;;;5050871;28;20037;-72
2023/05/28 04:37:45;;;;;;;13.82;3.40;;;12.80;99.90;;;;;;5050359;28;20107;-73
2023/05/28 04:40:11;;;;;;;14.02;3.58;;;12.80;99.90;;;;;;5051195;28;20029;-72
2023/05/28 04:42:41;;;;;;;8.32;3.10;;;12.80;99.90;;;;;;5050908;28;20029;-71
2023/05/28 04:45:11;;;;;;;15.70;3.53;;;12.80;99.90;;;;;;5050329;28;20047;-72
2023/05/28 04:47:37;;;;;;;14.60;3.95;;;12.80;99.90;;;;;;5050325;28;20078;-72
2023/05/28 04:50:04;;;;;;;8.77;3.28;;;12.80;99.90;;;;;;5050546;28;20036;-72
2023/05/28 04:52:32;;;;;;;12.00;3.30;;;12.80;99.90;;;;;;5050645;28;20029;-73
2023/05/28 04:54:58;;;;;;;12.48;3.13;;;12.70;99.90;;;;;;5049813;28;20048;-72
2023/05/28 04:57:24;;;;;;;9.98;3.10;;;12.60;99.90;;;;;;5050511;28;20028;-73
2023/05/28 04:59:51;;;;;;;12.40;3.10;;;12.60;99.90;;;;;;5049912;28;20118;-73
2023/05/28 05:02:18;;;;;;;13.70;3.63;;;12.70;99.90;;;;;;5050382;28;20035;-73
2023/05/28 05:04:45;;;;;;;12.82;3.05;;;12.70;99.90;;;;;;5049886;28;20359;-74
2023/05/28 05:07:11;;;;;;;13.07;3.50;;;12.40;99.90;;;;;;5050083;28;20021;-73
2023/05/28 05:09:37;;;;;;;11.50;4.20;;;12.40;99.90;;;;;;5050569;28;20025;-72
2023/05/28 05:12:03;;;;;;;9.68;3.38;;;12.50;99.90;;;;;;5049358;28;20033;-73
2023/05/28 05:14:29;;;;;;;15.30;3.40;;;12.40;99.90;;;;;;5050275;28;20608;-72
2023/05/28 05:16:55;;;;;;;12.52;3.38;;;12.40;99.90;;;;;;5052752;28;20063;-72
2023/05/28 05:19:21;;;;;;;15.10;3.45;;;12.30;99.90;;;;;;5054421;28;20029;-72
2023/05/28 05:21:47;;;;;;;10.50;2.80;;;12.30;99.90;;;;;;5054644;28;20032;-72
2023/05/28 05:24:12;;;;;;;15.65;3.45;;;12.30;99.90;;;;;;5054478;28;20454;-72
2023/05/28 05:26:38;;;;;;;9.18;2.45;;;12.30;99.90;;;;;;5054314;28;20049;-72
2023/05/28 05:29:04;;;;;;;14.32;3.30;;;12.40;99.90;;;;;;5053868;28;20047;-72
2023/05/28 05:31:30;;;;;;;12.52;3.10;;;12.30;99.90;;;;;;5054159;28;20131;-72
2023/05/28 05:33:55;;;;;;;13.25;2.80;;;12.40;99.90;;;;;;5053357;28;20017;-72
2023/05/28 05:36:21;;;;;;;11.77;3.08;;;12.40;99.90;;;;;;5053933;28;20021;-72
2023/05/28 05:38:47;;;;;;;12.95;3.03;;;12.40;99.90;;;;;;5053175;28;20025;-73
2023/05/28 05:41:13;;;;;;;14.88;3.00;;;12.40;99.90;;;;;;5054194;28;20029;-72
2023/05/28 05:43:39;;;;;;;14.95;3.30;;;12.40;99.90;;;;;;5053954;28;20021;-72
2023/05/28 05:46:05;;;;;;;14.90;2.85;;;12.40;99.90;;;;;;5053473;28;20610;-72
2023/05/28 05:48:30;;;;;;;15.77;2.95;;;12.40;99.90;;;;;;5053747;28;20053;-73
2023/05/28 05:50:58;;;;;;;16.58;3.30;;;12.40;99.90;;;;;;5053338;28;20032;-72
2023/05/28 05:53:24;;;;;;;17.00;3.20;;;12.40;99.90;;;;;;5053887;28;20093;-72
2023/05/28 05:55:50;;;;;;;15.48;3.67;;;12.40;99.90;;;;;;5053199;28;20037;-73
2023/05/28 05:58:16;;;;;;;17.83;3.63;;;12.50;99.90;;;;;;5052295;28;20029;-72
2023/05/28 06:00:42;;;;;;;14.52;3.40;;;12.60;99.90;;;;;;5053551;28;20031;-72
2023/05/28 06:03:08;;;;;;;9.65;2.78;;;12.60;99.90;;;;;;5052997;28;20733;-73
2023/05/28 06:05:35;;;;;;;12.73;3.15;;;12.50;99.90;;;;;;5052004;28;20063;-72
2023/05/28 06:08:04;;;;;;;15.48;3.50;;;12.60;99.90;;;;;;5053016;28;20485;-72
2023/05/28 06:10:29;;;;;;;12.18;2.97;;;12.50;99.90;;;;;;5052945;28;20107;-72
2023/05/28 06:12:55;;;;;;;14.95;2.90;;;12.50;99.90;;;;;;5052665;28;20025;-72
2023/05/28 06:15:22;;;;;;;18.30;4.13;;;12.50;99.90;;;;;;5052817;28;20029;-72
2023/05/28 06:17:48;;;;;;;15.80;3.45;;;12.70;99.90;;;;;;5053102;28;20079;-74
2023/05/28 06:20:14;;;;;;;11.27;3.20;;;12.70;99.90;;;;;;5052916;28;20044;-72
2023/05/28 06:22:40;;;;;;;13.95;3.50;;;12.80;99.90;;;;;;5053106;28;20033;-72
2023/05/28 06:25:08;;;;;;;12.00;2.92;;;12.90;99.90;;;;;;5052082;28;20029;-72
2023/05/28 06:27:35;;;;;;;14.25;3.25;;;12.90;99.90;;;;;;5052848;28;20043;-72
2023/05/28 06:30:02;;;;;;;15.20;3.20;;;12.80;99.90;;;;;;5052407;28;20025;-72
2023/05/28 06:32:28;;;;;;;11.85;3.08;;;12.90;99.90;;;;;;5052987;28;20052;-72
2023/05/28 06:34:53;;;;;;;15.65;3.53;;;13.10;99.90;;;;;;5051829;28;20146;-73
2023/05/28 06:37:19;;;;;;;10.48;2.60;;;13.20;99.90;;;;;;5052657;28;20025;-72
2023/05/28 06:39:45;;;;;;;10.38;2.63;;;13.20;99.90;;;;;;5053218;28;20595;-72
2023/05/28 06:42:11;;;;;;;11.10;2.75;;;13.10;99.90;;;;;;5052646;28;20021;-72
2023/05/28 06:44:36;;;;;;;14.10;3.25;;;13.10;99.90;;;;;;5052708;28;20090;-71
2023/05/28 06:47:02;;;;;;;17.33;3.20;;;13.10;99.90;;;;;;5052185;28;20025;-72
2023/05/28 06:49:28;;;;;;;12.85;3.05;;;13.00;99.90;;;;;;5052768;28;20549;-72
2023/05/28 06:51:54;;;;;;;15.50;3.22;;;12.70;99.90;;;;;;5052107;28;20459;-72
2023/05/28 06:54:20;;;;;;;11.55;3.30;;;12.80;99.90;;;;;;5052825;28;20095;-72
2023/05/28 06:56:45;;;;;;;15.50;3.35;;;12.90;99.90;;;;;;5053217;28;20021;-70
2023/05/28 06:59:11;;;;;;;14.35;3.63;;;12.90;99.90;;;;;;5051999;28;20017;-71
2023/05/28 07:01:37;;;;;;;15.77;3.33;;;13.00;99.90;;;;;;5052903;28;20108;-72
2023/05/28 07:04:02;;;;;;;14.48;3.15;;;13.00;99.90;;;;;;5052310;28;20028;-73
2023/05/28 07:06:28;;;;;;;11.63;3.55;;;12.90;99.90;;;;;;5052816;28;20067;-72
2023/05/28 07:08:54;;;;;;;11.82;3.60;;;12.90;99.90;;;;;;5051709;28;20064;-72
2023/05/28 07:11:19;;;;;;;19.75;3.00;;;13.10;99.90;;;;;;5050771;28;20085;-72
2023/05/28 07:13:46;;;;;;;16.70;3.65;;;12.90;99.90;;;;;;5052315;28;20111;-72
2023/05/28 07:16:12;;;;;;;14.13;3.90;;;12.80;99.90;;;;;;5051842;28;20059;-73
2023/05/28 07:18:38;;;;;;;18.85;3.60;;;12.80;99.90;;;;;;5052361;28;20056;-72
2023/05/28 07:21:05;;;;;;;17.20;4.00;;;12.80;99.90;;;;;;5051708;28;20476;-73
2023/05/28 07:23:31;;;;;;;12.32;3.00;;;12.80;99.90;;;;;;5052184;28;20025;-72
2023/05/28 07:26:15;;;;;;;12.90;3.55;;;12.90;99.90;;;;;;5051405;28;20412;-73
2023/05/28 07:28:41;;;;;;;17.63;3.55;;;13.00;99.90;;;;;;5052185;28;20025;-72
2023/05/28 07:31:06;;;;;;;18.67;3.58;;;13.00;99.90;;;;;;5050153;28;20442;-72
2023/05/28 07:33:32;;;;;;;17.83;3.55;;;13.00;99.90;;;;;;5052088;28;20473;-72
2023/05/28 07:35:58;;;;;;;9.95;2.55;;;13.00;99.90;;;;;;5051057;28;20117;-73
2023/05/28 07:38:23;;;;;;;15.68;3.67;;;13.10;99.90;;;;;;5051457;28;20025;-72
2023/05/28 07:41:08;;;;;;;14.63;3.70;;;13.00;99.90;;;;;;5052447;28;20032;-72
2023/05/28 07:43:34;;;;;;;15.73;3.47;;;13.00;99.90;;;;;;5051994;28;20112;-72
2023/05/28 07:46:00;;;;;;;13.32;3.45;;;13.10;99.90;;;;;;5051335;28;20119;-73
2023/05/28 07:48:26;;;;;;;14.35;3.33;;;13.10;99.90;;;;;;5052068;28;20079;-73
2023/05/28 07:50:52;;;;;;;13.38;3.20;;;13.20;99.90;;;;;;5051400;28;20529;-72
2023/05/28 07:53:18;;;;;;;15.20;3.95;;;13.20;99.90;;;;;;5049913;28;20029;-72
2023/05/28 07:55:44;;;;;;;16.40;3.53;;;13.40;99.90;;;;;;5050706;28;20393;-72
2023/05/28 07:58:12;;;;;;;12.70;3.38;;;13.40;99.90;;;;;;5050766;28;20033;-72
2023/05/28 08:00:41;;;;;;;15.25;2.70;;;13.40;99.90;;;;;;5051513;28;20427;-72
2023/05/28 08:03:07;;;;;;;12.15;2.97;;;13.30;99.90;;;;;;5050750;28;20105;-73
2023/05/28 08:05:33;;;;;;;18.10;4.07;;;13.30;99.90;;;;;;5049658;28;20115;-72
2023/05/28 08:07:59;;;;;;;14.35;3.40;;;13.40;99.90;;;;;;5049442;28;20178;-72
2023/05/28 08:10:25;;;;;;;12.25;3.30;;;13.50;99.90;;;;;;5051267;28;20029;-73
2023/05/28 08:12:51;;;;;;;12.93;3.50;;;13.70;99.90;;;;;;5051302;28;20024;-72
2023/05/28 08:15:16;;;;;;;15.52;3.72;;;13.80;99.90;;;;;;5049918;28;20052;-71
2023/05/28 08:17:42;;;;;;;14.68;2.95;;;13.90;99.90;;;;;;5050879;28;20116;-72
2023/05/28 08:20:11;;;;;;;12.48;3.38;;;13.90;99.90;;;;;;5050659;28;20032;-73
2023/05/28 08:22:37;;;;;;;9.63;2.90;;;14.00;99.90;;;;;;5050398;28;20105;-72
2023/05/28 08:25:04;;;;;;;13.27;2.80;;;14.00;99.90;;;;;;5049587;28;20101;-72
2023/05/28 08:27:31;;;;;;;13.23;3.13;;;14.00;99.90;;;;;;5050437;28;20074;-72
2023/05/28 08:29:56;;;;;;;15.95;3.67;;;14.00;99.90;;;;;;5049751;28;20029;-75
2023/05/28 08:32:22;;;;;;;16.02;3.90;;;13.90;99.90;;;;;;5050269;28;20025;-73
2023/05/28 08:34:48;;;;;;;16.75;3.55;;;14.00;99.90;;;;;;5050130;28;20072;-73
2023/05/28 08:37:15;;;;;;;16.38;4.00;;;14.10;99.90;;;;;;5048035;28;20112;-73
2023/05/28 08:39:40;;;;;;;17.70;3.70;;;14.10;99.90;;;;;;5050368;28;20029;-73
2023/05/28 08:42:07;;;;;;;15.25;3.47;;;14.10;99.90;;;;;;5049519;28;20353;-74
2023/05/28 08:44:34;;;;;;;14.15;3.60;;;14.10;99.90;;;;;;5050341;28;20131;-72
2023/05/28 08:47:00;;;;;;;15.38;3.63;;;13.90;99.90;;;;;;5049750;28;20187;-71
2023/05/28 08:49:50;;;;;;;14.20;3.47;;;14.00;99.90;;;;;;5050346;28;20044;-72
2023/05/28 08:52:18;;;;;;;20.75;3.95;;;14.10;99.90;;;;;;5050525;28;20100;-72
2023/05/28 08:54:44;;;;;;;10.80;3.75;;;13.80;99.90;;;;;;5050450;28;20072;-72
2023/05/28 08:57:11;;;;;;;13.30;3.45;;;14.00;99.90;;;;;;5049423;28;20025;-72
2023/05/28 08:59:37;;;;;;;12.38;3.45;;;14.20;99.90;;;;;;5050509;28;20021;-72
2023/05/28 09:02:08;;;;;;;11.63;3.17;;;14.40;99.90;;;;;;5049709;28;20021;-72
2023/05/28 09:04:34;;;;;;;14.57;3.63;;;14.40;99.90;;;;;;5051050;28;20044;-72
2023/05/28 09:07:00;;;;;;;10.52;3.33;;;14.30;99.90;;;;;;5050124;28;20024;-74
2023/05/28 09:09:26;;;;;;;11.35;3.28;;;14.40;99.90;;;;;;5050870;28;20025;-73
2023/05/28 09:11:58;;;;;;;9.38;2.92;;;14.50;99.90;;;;;;5050556;28;20104;-73
2023/05/28 09:14:23;;;;;;;16.42;3.45;;;14.50;99.90;;;;;;5048424;28;20086;-73
2023/05/28 09:16:49;;;;;;;14.65;3.70;;;14.50;99.90;;;;;;5049819;28;20024;-73
2023/05/28 09:19:16;;;;;;;15.93;3.33;;;14.40;99.90;;;;;;5049625;28;20423;-73
2023/05/28 09:22:01;;;;;;;11.32;3.90;;;14.50;99.90;;;;;;5050208;28;20148;-73
2023/05/28 09:24:28;;;;;;;14.20;3.63;;;14.60;99.90;;;;;;5050272;28;20064;-73
2023/05/28 09:26:57;;;;;;;14.43;3.35;;;14.60;99.90;;;;;;5050282;28;20055;-72
2023/05/28 09:29:24;;;;;;;12.20;3.83;;;14.80;99.90;;;;;;5049527;28;20043;-73
2023/05/28 09:31:57;;;;;;;7.68;3.08;;;14.70;99.90;;;;;;5048571;28;20043;-72
2023/05/28 09:34:31;;;;;;;12.55;3.22;;;14.70;99.90;;;;;;5049515;28;20041;-72
2023/05/28 09:37:04;;;;;;;16.25;3.88;;;14.80;99.90;;;;;;5048252;28;20032;-72
2023/05/28 09:39:31;;;;;;;14.07;3.50;;;14.90;99.90;;;;;;5050253;28;20056;-73
2023/05/28 09:42:06;;;;;;;15.55;3.47;;;15.00;99.90;;;;;;5049785;28;20441;-73
2023/05/28 09:44:32;;;;;;;13.85;3.85;;;15.00;99.90;;;;;;5050240;28;20037;-73
2023/05/28 09:46:58;;;;;;;12.20;3.50;;;15.20;99.90;;;;;;5049988;28;20032;-72
2023/05/28 09:49:25;;;;;;;13.23;3.60;;;15.30;99.90;;;;;;5048438;28;20029;-73
2023/05/28 09:51:56;;;;;;;16.40;3.67;;;15.50;99.90;;;;;;5050434;28;20032;-73
2023/05/28 09:54:24;;;;;;;13.93;3.50;;;15.60;99.90;;;;;;5049545;28;20033;-73
2023/05/28 09:56:52;;;;;;;13.95;3.28;;;15.40;99.90;;;;;;5049744;28;20057;-73
2023/05/28 09:59:21;;;;;;;9.00;3.15;;;15.50;99.90;;;;;;5049392;28;20053;-73
2023/05/28 10:02:35;;;;;;;22.00;3.95;;;15.70;99.90;;;;;;5050597;28;20413;-73
2023/05/28 10:05:06;;;;;;;11.98;3.58;;;15.50;99.90;;;;;;5053190;28;20036;-74
2023/05/28 10:07:34;;;;;;;13.90;2.92;;;15.40;99.90;;;;;;5053286;28;20124;-73
2023/05/28 10:10:03;;;;;;;16.70;3.72;;;15.40;99.90;;;;;;5053383;28;20040;-73
2023/05/28 10:12:30;;;;;;;14.32;3.53;;;15.40;99.90;;;;;;5053618;28;20079;-74
2023/05/28 10:14:57;;;;;;;14.57;3.47;;;15.40;99.90;;;;;;5053257;28;20071;-73
2023/05/28 10:17:23;;;;;;;13.27;3.72;;;15.50;99.90;;;;;;5052661;28;20458;-74
2023/05/28 10:19:49;;;;;;;11.85;3.58;;;15.70;99.90;;;;;;5052051;28;20327;-73
2023/05/28 10:22:16;;;;;;;19.40;4.03;;;15.70;99.90;;;;;;5052460;28;20036;-73
2023/05/28 10:24:44;;;;;;;11.75;3.78;;;15.40;99.90;;;;;;5053116;28;20037;-73
2023/05/28 10:27:15;;;;;;;14.07;3.83;;;15.50;99.90;;;;;;5052425;28;20464;-73
2023/05/28 10:29:42;;;;;;;10.05;3.40;;;15.50;99.90;;;;;;5053094;28;20052;-73
2023/05/28 10:32:08;;;;;;;18.17;3.80;;;15.70;99.90;;;;;;5052483;28;20021;-73
2023/05/28 10:34:36;;;;;;;16.40;3.53;;;15.70;99.90;;;;;;5052903;28;20044;-73
2023/05/28 10:37:04;;;;;;;14.65;3.35;;;15.70;99.90;;;;;;5052761;28;20036;-73
2023/05/28 10:39:43;;;;;;;12.18;3.08;;;15.70;99.90;;;;;;5052487;28;20497;-73
2023/05/28 10:42:10;;;;;;;19.92;3.70;;;15.60;99.90;;;;;;5050671;28;20162;-74
2023/05/28 10:45:11;;;;;;;13.57;3.72;;;15.50;99.90;;;;;;5052961;28;20037;-73
2023/05/28 10:47:40;;;;;;;10.82;3.72;;;15.30;99.90;;;;;;5030514;28;20498;-73
2023/05/28 10:50:08;;;;;;;11.23;3.70;;;15.40;99.90;;;;;;5052535;28;20036;-75
2023/05/28 10:52:35;;;;;;;12.10;3.30;;;15.50;99.90;;;;;;5052857;28;20485;-73
2023/05/28 10:55:07;;;;;;;15.23;4.07;;;15.60;99.90;;;;;;5051860;28;20099;-73
2023/05/28 10:57:43;;;;;;;14.00;3.05;;;15.70;99.90;;;;;;5050597;28;20040;-73
2023/05/28 11:00:13;;;;;;;11.93;3.55;;;15.90;99.90;;;;;;5051406;28;20178;-74
2023/05/28 11:02:43;;;;;;;15.05;3.50;;;15.90;99.90;;;;;;5052070;28;20422;-73
2023/05/28 11:05:09;;;;;;;10.77;3.47;;;15.60;99.90;;;;;;5051574;28;20041;-74
2023/05/28 11:07:39;;;;;;;14.77;3.40;;;15.70;99.90;;;;;;5051519;28;20168;-73
2023/05/28 11:10:07;;;;;;;15.85;3.85;;;15.90;99.90;;;;;;5049974;28;20415;-75
2023/05/28 11:12:36;;;;;;;12.05;3.45;;;15.90;99.90;;;;;;5051724;28;20021;-74
2023/05/28 11:15:03;;;;;;;12.20;3.13;;;15.70;99.90;;;;;;5050233;28;20033;-73
2023/05/28 11:17:29;;;;;;;12.15;3.35;;;15.70;99.90;;;;;;5050724;28;20470;-73
2023/05/28 11:19:55;;;;;;;11.95;3.67;;;15.90;99.90;;;;;;5051330;28;20057;-73
2023/05/28 11:22:21;;;;;;;15.30;4.00;;;15.90;99.90;;;;;;5051232;28;20035;-73
2023/05/28 11:24:50;;;;;;;12.73;3.80;;;16.00;99.90;;;;;;5051325;28;20101;-73
2023/05/28 11:27:17;;;;;;;11.02;3.30;;;16.10;99.90;;;;;;5051037;28;20084;-73
2023/05/28 11:29:42;;;;;;;12.00;3.97;;;16.10;99.90;;;;;;5051272;28;20037;-73
2023/05/28 11:32:08;;;;;;;12.10;3.42;;;16.10;99.90;;;;;;5050937;28;20117;-75
2023/05/28 11:34:37;;;;;;;12.52;3.38;;;16.20;99.90;;;;;;5051237;28;20119;-73
2023/05/28 11:37:07;;;;;;;15.77;3.38;;;16.20;99.90;;;;;;5049388;28;20049;-73
2023/05/28 11:39:34;;;;;;;12.30;3.20;;;16.30;99.90;;;;;;5049376;28;20433;-73
2023/05/28 11:42:00;;;;;;;14.63;3.42;;;15.90;99.90;;;;;;5050902;28;20112;-73
2023/05/28 11:44:25;;;;;;;12.40;3.20;;;16.00;99.90;;;;;;5050043;28;20129;-73
2023/05/28 11:46:55;;;;;;;12.95;3.38;;;15.90;99.90;;;;;;5050707;28;20021;-73
2023/05/28 11:49:22;;;;;;;16.55;3.63;;;16.00;99.90;;;;;;5050230;28;20441;-73
2023/05/28 11:51:51;;;;;;;10.45;3.20;;;15.90;99.90;;;;;;5050927;28;20054;-71
2023/05/28 11:54:17;;;;;;;11.55;3.53;;;16.00;99.90;;;;;;5049012;28;20033;-74
2023/05/28 11:56:42;;;;;;;14.30;3.45;;;16.20;99.90;;;;;;5050623;28;20029;-72
2023/05/28 11:59:10;;;;;;;15.18;3.53;;;16.40;99.90;;;;;;5050713;28;20025;-73
2023/05/28 12:01:38;;;;;;;18.15;3.60;;;16.40;99.90;;;;;;5050448;28;20021;-72
2023/05/28 12:04:08;;;;;;;15.57;3.42;;;15.80;99.90;;;;;;5050762;28;20028;-72
2023/05/28 12:06:35;;;;;;;10.43;3.90;;;15.80;99.90;;;;;;5050516;28;20086;-72
2023/05/28 12:09:07;;;;;;;13.27;3.97;;;15.50;99.90;;;;;;5050153;28;20090;-73
2023/05/28 12:11:34;;;;;;;15.65;3.40;;;15.70;99.90;;;;;;5049901;28;20058;-72
2023/05/28 12:14:15;;;;;;;11.80;3.53;;;15.90;99.90;;;;;;5049862;28;20031;-73
2023/05/28 12:16:47;;;;;;;11.35;3.63;;;16.00;99.90;;;;;;5050213;28;20044;-73
2023/05/28 12:19:16;;;;;;;13.18;4.00;;;16.00;99.90;;;;;;5049976;28;20048;-73
2023/05/28 12:21:43;;;;;;;10.88;3.65;;;15.80;99.90;;;;;;5050244;28;20036;-72
2023/05/28 12:24:15;;;;;;;16.38;3.97;;;15.90;99.90;;;;;;5049747;28;20075;-72
2023/05/28 12:26:44;;;;;;;14.73;3.83;;;15.90;99.90;;;;;;5050058;28;20048;-72
2023/05/28 12:29:10;;;;;;;11.80;3.42;;;15.90;99.90;;;;;;5049600;28;20080;-73
2023/05/28 12:31:36;;;;;;;18.83;3.80;;;16.10;99.90;;;;;;5049993;28;20112;-72
2023/05/28 12:34:02;;;;;;;14.57;3.20;;;16.10;99.90;;;;;;5048912;28;20101;-73
2023/05/28 12:36:28;;;;;;;11.38;3.30;;;16.00;99.90;;;;;;5049409;28;20056;-73
2023/05/28 12:38:53;;;;;;;12.02;3.88;;;15.90;99.90;;;;;;5050326;28;20438;-73